sensor_id;sensor_type;location;lat;lon;timestamp;P1;durP1;ratioP1;P2;durP2;ratioP2
71622;SDS011;59473;53.214;5.728;2023-12-20T00:01:46;13.23;;;4.73;;
71622;SDS011;59473;53.214;5.728;2023-12-20T00:04:11;15.80;;;4.37;;
71622;SDS011;59473;53.214;5.728;2023-12-20T00:06:36;13.80;;;4.77;;
71622;SDS011;59473;53.214;5.728;2023-12-20T00:09:01;17.10;;;5.40;;
71622;SDS011;59473;53.214;5.728;2023-12-20T00:11:27;20.83;;;5.67;;
71622;SDS011;59473;53.214;5.728;2023-12-20T00:13:52;18.70;;;5.57;;
71622;SDS011;59473;53.214;5.728;2023-12-20T00:16:18;17.77;;;4.40;;
71622;SDS011;59473;53.214;5.728;2023-12-20T00:18:43;26.55;;;6.38;;
71622;SDS011;59473;53.214;5.728;2023-12-20T00:21:08;16.37;;;5.53;;
71622;SDS011;59473;53.214;5.728;2023-12-20T00:23:33;15.33;;;4.83;;
71622;SDS011;59473;53.214;5.728;2023-12-20T00:25:59;18.50;;;4.53;;
71622;SDS011;59473;53.214;5.728;2023-12-20T00:28:24;16.10;;;4.60;;
71622;SDS011;59473;53.214;5.728;2023-12-20T00:30:49;24.50;;;4.83;;
71622;SDS011;59473;53.214;5.728;2023-12-20T00:33:14;20.40;;;5.07;;
71622;SDS011;59473;53.214;5.728;2023-12-20T00:35:40;18.10;;;5.60;;
71622;SDS011;59473;53.214;5.728;2023-12-20T00:38:05;21.63;;;5.67;;
71622;SDS011;59473;53.214;5.728;2023-12-20T00:40:32;16.63;;;4.75;;
71622;SDS011;59473;53.214;5.728;2023-12-20T00:42:58;20.83;;;4.87;;
71622;SDS011;59473;53.214;5.728;2023-12-20T00:45:23;22.87;;;5.30;;
71622;SDS011;59473;53.214;5.728;2023-12-20T00:47:48;22.23;;;4.57;;
71622;SDS011;59473;53.214;5.728;2023-12-20T00:50:13;21.57;;;5.40;;
71622;SDS011;59473;53.214;5.728;2023-12-20T00:52:38;17.37;;;4.67;;
71622;SDS011;59473;53.214;5.728;2023-12-20T00:55:04;22.03;;;5.07;;
71622;SDS011;59473;53.214;5.728;2023-12-20T00:57:29;22.20;;;5.45;;
71622;SDS011;59473;53.214;5.728;2023-12-20T00:59:55;22.60;;;4.90;;
71622;SDS011;59473;53.214;5.728;2023-12-20T01:02:21;25.77;;;6.23;;
71622;SDS011;59473;53.214;5.728;2023-12-20T01:04:46;22.43;;;5.27;;
71622;SDS011;59473;53.214;5.728;2023-12-20T01:07:12;23.17;;;4.93;;
71622;SDS011;59473;53.214;5.728;2023-12-20T01:09:37;25.90;;;4.63;;
71622;SDS011;59473;53.214;5.728;2023-12-20T01:12:03;17.70;;;5.40;;
71622;SDS011;59473;53.214;5.728;2023-12-20T01:14:28;21.80;;;5.97;;
71622;SDS011;59473;53.214;5.728;2023-12-20T01:16:53;28.27;;;6.20;;
71622;SDS011;59473;53.214;5.728;2023-12-20T01:19:19;23.50;;;5.80;;
71622;SDS011;59473;53.214;5.728;2023-12-20T01:21:44;25.50;;;5.60;;
71622;SDS011;59473;53.214;5.728;2023-12-20T01:24:09;22.47;;;5.33;;
71622;SDS011;59473;53.214;5.728;2023-12-20T01:26:34;18.43;;;4.90;;
71622;SDS011;59473;53.214;5.728;2023-12-20T01:28:59;21.83;;;5.07;;
71622;SDS011;59473;53.214;5.728;2023-12-20T01:31:26;29.90;;;7.18;;
71622;SDS011;59473;53.214;5.728;2023-12-20T01:33:52;24.17;;;5.63;;
71622;SDS011;59473;53.214;5.728;2023-12-20T01:36:17;24.33;;;5.43;;
71622;SDS011;59473;53.214;5.728;2023-12-20T01:38:42;26.07;;;6.27;;
71622;SDS011;59473;53.214;5.728;2023-12-20T01:41:07;25.50;;;6.23;;
71622;SDS011;59473;53.214;5.728;2023-12-20T01:43:33;28.90;;;6.03;;
71622;SDS011;59473;53.214;5.728;2023-12-20T01:45:58;26.07;;;5.90;;
71622;SDS011;59473;53.214;5.728;2023-12-20T01:48:26;28.70;;;5.73;;
71622;SDS011;59473;53.214;5.728;2023-12-20T01:50:52;27.05;;;6.70;;
71622;SDS011;59473;53.214;5.728;2023-12-20T01:53:19;26.92;;;5.95;;
71622;SDS011;59473;53.214;5.728;2023-12-20T01:55:46;26.77;;;5.50;;
71622;SDS011;59473;53.214;5.728;2023-12-20T01:58:12;24.73;;;5.88;;
71622;SDS011;59473;53.214;5.728;2023-12-20T02:00:38;26.23;;;5.87;;
71622;SDS011;59473;53.214;5.728;2023-12-20T02:03:03;24.17;;;6.05;;
71622;SDS011;59473;53.214;5.728;2023-12-20T02:05:33;24.73;;;5.40;;
71622;SDS011;59473;53.214;5.728;2023-12-20T02:07:59;25.93;;;5.77;;
71622;SDS011;59473;53.214;5.728;2023-12-20T02:10:25;30.45;;;6.57;;
71622;SDS011;59473;53.214;5.728;2023-12-20T02:12:50;28.67;;;6.67;;
71622;SDS011;59473;53.214;5.728;2023-12-20T02:15:15;27.50;;;6.83;;
71622;SDS011;59473;53.214;5.728;2023-12-20T02:17:40;20.20;;;5.70;;
71622;SDS011;59473;53.214;5.728;2023-12-20T02:20:06;28.83;;;6.60;;
71622;SDS011;59473;53.214;5.728;2023-12-20T02:22:31;26.33;;;5.80;;
71622;SDS011;59473;53.214;5.728;2023-12-20T02:24:57;27.40;;;6.03;;
71622;SDS011;59473;53.214;5.728;2023-12-20T02:27:22;24.08;;;6.10;;
71622;SDS011;59473;53.214;5.728;2023-12-20T02:29:47;28.13;;;6.22;;
71622;SDS011;59473;53.214;5.728;2023-12-20T02:32:13;25.93;;;6.87;;
71622;SDS011;59473;53.214;5.728;2023-12-20T02:34:38;24.93;;;5.50;;
71622;SDS011;59473;53.214;5.728;2023-12-20T02:37:03;32.77;;;5.67;;
71622;SDS011;59473;53.214;5.728;2023-12-20T02:39:29;30.63;;;5.30;;
71622;SDS011;59473;53.214;5.728;2023-12-20T02:41:55;27.95;;;6.63;;
71622;SDS011;59473;53.214;5.728;2023-12-20T02:44:20;25.73;;;5.20;;
71622;SDS011;59473;53.214;5.728;2023-12-20T02:46:45;28.33;;;6.37;;
71622;SDS011;59473;53.214;5.728;2023-12-20T02:49:10;24.60;;;6.43;;
71622;SDS011;59473;53.214;5.728;2023-12-20T02:51:36;24.97;;;5.33;;
71622;SDS011;59473;53.214;5.728;2023-12-20T02:54:03;26.92;;;6.25;;
71622;SDS011;59473;53.214;5.728;2023-12-20T02:56:29;24.47;;;6.33;;
71622;SDS011;59473;53.214;5.728;2023-12-20T02:58:54;27.40;;;6.17;;
71622;SDS011;59473;53.214;5.728;2023-12-20T03:01:19;29.17;;;6.40;;
71622;SDS011;59473;53.214;5.728;2023-12-20T03:03:44;23.83;;;5.80;;
71622;SDS011;59473;53.214;5.728;2023-12-20T03:06:10;24.20;;;6.13;;
71622;SDS011;59473;53.214;5.728;2023-12-20T03:08:35;27.10;;;6.95;;
71622;SDS011;59473;53.214;5.728;2023-12-20T03:11:00;32.72;;;7.18;;
71622;SDS011;59473;53.214;5.728;2023-12-20T03:13:25;27.63;;;6.70;;
71622;SDS011;59473;53.214;5.728;2023-12-20T03:15:51;24.67;;;6.55;;
71622;SDS011;59473;53.214;5.728;2023-12-20T03:18:16;28.50;;;6.00;;
71622;SDS011;59473;53.214;5.728;2023-12-20T03:20:42;28.10;;;6.40;;
71622;SDS011;59473;53.214;5.728;2023-12-20T03:23:07;30.47;;;5.60;;
71622;SDS011;59473;53.214;5.728;2023-12-20T03:25:32;22.63;;;5.20;;
71622;SDS011;59473;53.214;5.728;2023-12-20T03:27:57;24.80;;;6.70;;
71622;SDS011;59473;53.214;5.728;2023-12-20T03:30:23;29.87;;;5.97;;
71622;SDS011;59473;53.214;5.728;2023-12-20T03:32:48;20.67;;;5.27;;
71622;SDS011;59473;53.214;5.728;2023-12-20T03:35:13;28.20;;;5.90;;
71622;SDS011;59473;53.214;5.728;2023-12-20T03:37:38;27.30;;;6.10;;
71622;SDS011;59473;53.214;5.728;2023-12-20T03:40:04;25.50;;;6.23;;
71622;SDS011;59473;53.214;5.728;2023-12-20T03:42:29;17.13;;;5.37;;
71622;SDS011;59473;53.214;5.728;2023-12-20T03:44:54;23.43;;;5.30;;
71622;SDS011;59473;53.214;5.728;2023-12-20T03:47:19;25.43;;;5.43;;
71622;SDS011;59473;53.214;5.728;2023-12-20T03:49:45;21.33;;;5.37;;
71622;SDS011;59473;53.214;5.728;2023-12-20T03:52:10;30.90;;;5.67;;
71622;SDS011;59473;53.214;5.728;2023-12-20T03:54:35;28.67;;;5.77;;
71622;SDS011;59473;53.214;5.728;2023-12-20T03:57:00;24.70;;;5.20;;
71622;SDS011;59473;53.214;5.728;2023-12-20T03:59:26;25.60;;;5.90;;
71622;SDS011;59473;53.214;5.728;2023-12-20T04:01:51;26.43;;;6.60;;
71622;SDS011;59473;53.214;5.728;2023-12-20T04:04:16;20.27;;;5.23;;
71622;SDS011;59473;53.214;5.728;2023-12-20T04:06:41;24.50;;;5.83;;
71622;SDS011;59473;53.214;5.728;2023-12-20T04:09:07;24.75;;;5.38;;
71622;SDS011;59473;53.214;5.728;2023-12-20T04:11:34;25.88;;;5.85;;
71622;SDS011;59473;53.214;5.728;2023-12-20T04:13:59;26.20;;;5.70;;
71622;SDS011;59473;53.214;5.728;2023-12-20T04:16:25;21.13;;;6.25;;
71622;SDS011;59473;53.214;5.728;2023-12-20T04:18:50;27.03;;;5.93;;
71622;SDS011;59473;53.214;5.728;2023-12-20T04:21:16;29.60;;;6.43;;
71622;SDS011;59473;53.214;5.728;2023-12-20T04:23:41;28.03;;;6.80;;
71622;SDS011;59473;53.214;5.728;2023-12-20T04:26:06;27.63;;;6.47;;
71622;SDS011;59473;53.214;5.728;2023-12-20T04:28:31;24.87;;;6.30;;
71622;SDS011;59473;53.214;5.728;2023-12-20T04:30:57;27.07;;;6.33;;
71622;SDS011;59473;53.214;5.728;2023-12-20T04:33:22;29.77;;;6.57;;
71622;SDS011;59473;53.214;5.728;2023-12-20T04:35:47;25.27;;;5.90;;
71622;SDS011;59473;53.214;5.728;2023-12-20T04:38:13;28.43;;;6.90;;
71622;SDS011;59473;53.214;5.728;2023-12-20T04:40:38;15.97;;;4.73;;
71622;SDS011;59473;53.214;5.728;2023-12-20T04:43:05;26.52;;;6.00;;
71622;SDS011;59473;53.214;5.728;2023-12-20T04:45:31;23.07;;;5.63;;
71622;SDS011;59473;53.214;5.728;2023-12-20T04:47:56;23.63;;;5.70;;
71622;SDS011;59473;53.214;5.728;2023-12-20T04:50:21;29.57;;;6.57;;
71622;SDS011;59473;53.214;5.728;2023-12-20T04:52:46;30.93;;;6.83;;
71622;SDS011;59473;53.214;5.728;2023-12-20T04:55:12;26.13;;;5.77;;
71622;SDS011;59473;53.214;5.728;2023-12-20T04:57:37;33.80;;;7.77;;
71622;SDS011;59473;53.214;5.728;2023-12-20T05:00:02;30.03;;;5.90;;
71622;SDS011;59473;53.214;5.728;2023-12-20T05:02:28;28.95;;;6.22;;
71622;SDS011;59473;53.214;5.728;2023-12-20T05:04:53;22.30;;;5.67;;
71622;SDS011;59473;53.214;5.728;2023-12-20T05:07:18;20.03;;;5.60;;
71622;SDS011;59473;53.214;5.728;2023-12-20T05:09:44;34.50;;;5.40;;
71622;SDS011;59473;53.214;5.728;2023-12-20T05:12:09;26.63;;;6.27;;
71622;SDS011;59473;53.214;5.728;2023-12-20T05:14:34;26.23;;;6.27;;
71622;SDS011;59473;53.214;5.728;2023-12-20T05:16:59;30.87;;;8.23;;
71622;SDS011;59473;53.214;5.728;2023-12-20T05:19:24;26.80;;;6.07;;
71622;SDS011;59473;53.214;5.728;2023-12-20T05:21:50;28.23;;;6.00;;
71622;SDS011;59473;53.214;5.728;2023-12-20T05:24:15;27.73;;;6.57;;
71622;SDS011;59473;53.214;5.728;2023-12-20T05:26:40;28.80;;;6.73;;
71622;SDS011;59473;53.214;5.728;2023-12-20T05:29:05;26.03;;;6.30;;
71622;SDS011;59473;53.214;5.728;2023-12-20T05:31:31;30.33;;;6.77;;
71622;SDS011;59473;53.214;5.728;2023-12-20T05:33:56;27.47;;;7.63;;
71622;SDS011;59473;53.214;5.728;2023-12-20T05:36:21;26.03;;;6.47;;
71622;SDS011;59473;53.214;5.728;2023-12-20T05:38:47;29.73;;;7.27;;
71622;SDS011;59473;53.214;5.728;2023-12-20T05:41:12;21.93;;;5.43;;
71622;SDS011;59473;53.214;5.728;2023-12-20T05:43:37;31.67;;;6.83;;
71622;SDS011;59473;53.214;5.728;2023-12-20T05:46:02;28.33;;;6.30;;
71622;SDS011;59473;53.214;5.728;2023-12-20T05:48:28;29.83;;;5.77;;
71622;SDS011;59473;53.214;5.728;2023-12-20T05:50:53;28.13;;;6.27;;
71622;SDS011;59473;53.214;5.728;2023-12-20T05:53:18;23.87;;;6.03;;
71622;SDS011;59473;53.214;5.728;2023-12-20T05:55:43;26.27;;;6.67;;
71622;SDS011;59473;53.214;5.728;2023-12-20T05:58:09;30.63;;;6.70;;
71622;SDS011;59473;53.214;5.728;2023-12-20T06:00:34;27.47;;;6.37;;
71622;SDS011;59473;53.214;5.728;2023-12-20T06:02:59;21.27;;;5.07;;
71622;SDS011;59473;53.214;5.728;2023-12-20T06:05:24;31.20;;;6.23;;
71622;SDS011;59473;53.214;5.728;2023-12-20T06:07:50;26.37;;;6.60;;
71622;SDS011;59473;53.214;5.728;2023-12-20T06:10:15;31.77;;;6.22;;
71622;SDS011;59473;53.214;5.728;2023-12-20T06:12:41;26.87;;;5.23;;
71622;SDS011;59473;53.214;5.728;2023-12-20T06:15:06;29.83;;;7.77;;
71622;SDS011;59473;53.214;5.728;2023-12-20T06:17:32;25.23;;;5.97;;
71622;SDS011;59473;53.214;5.728;2023-12-20T06:19:57;30.83;;;6.60;;
71622;SDS011;59473;53.214;5.728;2023-12-20T06:22:22;29.60;;;5.43;;
71622;SDS011;59473;53.214;5.728;2023-12-20T06:24:48;26.23;;;5.27;;
71622;SDS011;59473;53.214;5.728;2023-12-20T06:27:13;31.27;;;7.00;;
71622;SDS011;59473;53.214;5.728;2023-12-20T06:29:38;19.13;;;5.37;;
71622;SDS011;59473;53.214;5.728;2023-12-20T06:32:03;31.43;;;7.77;;
71622;SDS011;59473;53.214;5.728;2023-12-20T06:34:29;27.67;;;6.50;;
71622;SDS011;59473;53.214;5.728;2023-12-20T06:36:54;29.70;;;6.70;;
71622;SDS011;59473;53.214;5.728;2023-12-20T06:39:19;28.27;;;6.17;;
71622;SDS011;59473;53.214;5.728;2023-12-20T06:41:44;29.03;;;6.33;;
71622;SDS011;59473;53.214;5.728;2023-12-20T06:44:09;26.83;;;6.27;;
71622;SDS011;59473;53.214;5.728;2023-12-20T06:46:35;27.70;;;6.70;;
71622;SDS011;59473;53.214;5.728;2023-12-20T06:49:00;25.27;;;5.80;;
71622;SDS011;59473;53.214;5.728;2023-12-20T06:51:25;26.03;;;6.80;;
71622;SDS011;59473;53.214;5.728;2023-12-20T06:53:53;33.27;;;7.50;;
71622;SDS011;59473;53.214;5.728;2023-12-20T06:56:19;32.63;;;6.90;;
71622;SDS011;59473;53.214;5.728;2023-12-20T06:58:44;27.23;;;5.73;;
71622;SDS011;59473;53.214;5.728;2023-12-20T07:01:13;26.37;;;6.57;;
71622;SDS011;59473;53.214;5.728;2023-12-20T07:03:38;27.52;;;6.80;;
71622;SDS011;59473;53.214;5.728;2023-12-20T07:06:04;32.72;;;7.25;;
71622;SDS011;59473;53.214;5.728;2023-12-20T07:08:30;31.37;;;7.60;;
71622;SDS011;59473;53.214;5.728;2023-12-20T07:10:55;30.40;;;7.33;;
71622;SDS011;59473;53.214;5.728;2023-12-20T07:13:20;22.23;;;5.80;;
71622;SDS011;59473;53.214;5.728;2023-12-20T07:15:46;29.27;;;6.97;;
71622;SDS011;59473;53.214;5.728;2023-12-20T07:18:11;27.00;;;6.27;;
71622;SDS011;59473;53.214;5.728;2023-12-20T07:20:36;27.47;;;6.93;;
71622;SDS011;59473;53.214;5.728;2023-12-20T07:23:01;27.50;;;7.00;;
71622;SDS011;59473;53.214;5.728;2023-12-20T07:25:27;24.27;;;7.00;;
71622;SDS011;59473;53.214;5.728;2023-12-20T07:27:52;26.77;;;6.53;;
71622;SDS011;59473;53.214;5.728;2023-12-20T07:30:17;27.37;;;7.87;;
71622;SDS011;59473;53.214;5.728;2023-12-20T07:32:42;26.73;;;6.13;;
71622;SDS011;59473;53.214;5.728;2023-12-20T07:35:08;26.33;;;5.53;;
71622;SDS011;59473;53.214;5.728;2023-12-20T07:37:33;25.87;;;6.47;;
71622;SDS011;59473;53.214;5.728;2023-12-20T07:39:58;31.13;;;6.47;;
71622;SDS011;59473;53.214;5.728;2023-12-20T07:42:23;27.97;;;6.37;;
71622;SDS011;59473;53.214;5.728;2023-12-20T07:44:49;30.03;;;7.10;;
71622;SDS011;59473;53.214;5.728;2023-12-20T07:47:14;29.17;;;6.20;;
71622;SDS011;59473;53.214;5.728;2023-12-20T07:49:42;21.40;;;6.57;;
71622;SDS011;59473;53.214;5.728;2023-12-20T07:52:07;14.63;;;4.67;;
71622;SDS011;59473;53.214;5.728;2023-12-20T07:54:33;13.82;;;5.03;;
71622;SDS011;59473;53.214;5.728;2023-12-20T07:56:58;9.53;;;4.00;;
71622;SDS011;59473;53.214;5.728;2023-12-20T07:59:23;13.23;;;4.90;;
71622;SDS011;59473;53.214;5.728;2023-12-20T08:01:49;19.23;;;5.30;;
71622;SDS011;59473;53.214;5.728;2023-12-20T08:04:14;23.20;;;5.17;;
71622;SDS011;59473;53.214;5.728;2023-12-20T08:06:39;24.17;;;5.73;;
71622;SDS011;59473;53.214;5.728;2023-12-20T08:09:04;28.63;;;6.00;;
71622;SDS011;59473;53.214;5.728;2023-12-20T08:11:30;30.00;;;5.88;;
71622;SDS011;59473;53.214;5.728;2023-12-20T08:13:55;29.23;;;7.50;;
71622;SDS011;59473;53.214;5.728;2023-12-20T08:16:20;23.67;;;6.43;;
71622;SDS011;59473;53.214;5.728;2023-12-20T08:18:47;31.13;;;7.07;;
71622;SDS011;59473;53.214;5.728;2023-12-20T08:21:12;32.87;;;7.57;;
71622;SDS011;59473;53.214;5.728;2023-12-20T08:23:37;32.60;;;6.67;;
71622;SDS011;59473;53.214;5.728;2023-12-20T08:26:06;33.90;;;7.10;;
71622;SDS011;59473;53.214;5.728;2023-12-20T08:28:31;27.70;;;6.40;;
71622;SDS011;59473;53.214;5.728;2023-12-20T08:30:56;25.93;;;6.87;;
71622;SDS011;59473;53.214;5.728;2023-12-20T08:33:21;30.53;;;6.77;;
71622;SDS011;59473;53.214;5.728;2023-12-20T08:35:47;29.23;;;7.00;;
71622;SDS011;59473;53.214;5.728;2023-12-20T08:38:12;25.02;;;5.60;;
71622;SDS011;59473;53.214;5.728;2023-12-20T08:40:37;22.75;;;5.90;;
71622;SDS011;59473;53.214;5.728;2023-12-20T08:43:02;22.40;;;6.93;;
71622;SDS011;59473;53.214;5.728;2023-12-20T08:45:28;27.13;;;7.85;;
71622;SDS011;59473;53.214;5.728;2023-12-20T08:47:53;27.80;;;6.43;;
71622;SDS011;59473;53.214;5.728;2023-12-20T08:50:18;23.80;;;5.53;;
71622;SDS011;59473;53.214;5.728;2023-12-20T08:52:43;11.33;;;4.07;;
71622;SDS011;59473;53.214;5.728;2023-12-20T08:55:09;17.10;;;4.53;;
71622;SDS011;59473;53.214;5.728;2023-12-20T08:57:35;15.15;;;4.25;;
71622;SDS011;59473;53.214;5.728;2023-12-20T09:00:00;17.97;;;4.60;;
71622;SDS011;59473;53.214;5.728;2023-12-20T09:02:26;13.57;;;3.63;;
71622;SDS011;59473;53.214;5.728;2023-12-20T09:04:51;17.73;;;5.00;;
71622;SDS011;59473;53.214;5.728;2023-12-20T09:07:23;11.17;;;4.17;;
71622;SDS011;59473;53.214;5.728;2023-12-20T09:09:48;17.23;;;5.70;;
71622;SDS011;59473;53.214;5.728;2023-12-20T09:12:13;15.10;;;5.35;;
71622;SDS011;59473;53.214;5.728;2023-12-20T09:14:39;18.48;;;5.32;;
71622;SDS011;59473;53.214;5.728;2023-12-20T09:17:04;16.90;;;5.03;;
71622;SDS011;59473;53.214;5.728;2023-12-20T09:19:29;21.77;;;5.90;;
71622;SDS011;59473;53.214;5.728;2023-12-20T09:21:54;22.53;;;5.53;;
71622;SDS011;59473;53.214;5.728;2023-12-20T09:24:20;21.70;;;5.37;;
71622;SDS011;59473;53.214;5.728;2023-12-20T09:26:45;19.67;;;5.40;;
71622;SDS011;59473;53.214;5.728;2023-12-20T09:29:10;24.37;;;5.80;;
71622;SDS011;59473;53.214;5.728;2023-12-20T09:31:40;20.43;;;5.93;;
71622;SDS011;59473;53.214;5.728;2023-12-20T09:34:05;17.67;;;6.20;;
71622;SDS011;59473;53.214;5.728;2023-12-20T09:36:30;20.77;;;5.00;;
71622;SDS011;59473;53.214;5.728;2023-12-20T09:39:01;16.03;;;4.23;;
71622;SDS011;59473;53.214;5.728;2023-12-20T09:41:26;18.35;;;5.25;;
71622;SDS011;59473;53.214;5.728;2023-12-20T09:43:51;16.73;;;4.53;;
71622;SDS011;59473;53.214;5.728;2023-12-20T09:46:17;18.75;;;4.90;;
71622;SDS011;59473;53.214;5.728;2023-12-20T09:48:44;13.93;;;5.00;;
71622;SDS011;59473;53.214;5.728;2023-12-20T09:51:09;11.30;;;4.25;;
71622;SDS011;59473;53.214;5.728;2023-12-20T09:53:35;14.97;;;4.27;;
71622;SDS011;59473;53.214;5.728;2023-12-20T09:56:01;15.77;;;4.80;;
71622;SDS011;59473;53.214;5.728;2023-12-20T09:58:27;12.48;;;4.72;;
71622;SDS011;59473;53.214;5.728;2023-12-20T10:00:53;14.03;;;4.90;;
71622;SDS011;59473;53.214;5.728;2023-12-20T10:03:19;15.85;;;4.70;;
71622;SDS011;59473;53.214;5.728;2023-12-20T10:05:48;14.27;;;4.57;;
71622;SDS011;59473;53.214;5.728;2023-12-20T10:08:14;21.20;;;4.80;;
71622;SDS011;59473;53.214;5.728;2023-12-20T10:10:39;18.67;;;4.67;;
71622;SDS011;59473;53.214;5.728;2023-12-20T10:13:05;13.70;;;5.67;;
71622;SDS011;59473;53.214;5.728;2023-12-20T10:15:32;15.60;;;4.50;;
71622;SDS011;59473;53.214;5.728;2023-12-20T10:17:57;20.95;;;5.82;;
71622;SDS011;59473;53.214;5.728;2023-12-20T10:20:23;13.38;;;4.68;;
71622;SDS011;59473;53.214;5.728;2023-12-20T10:22:49;20.77;;;4.93;;
71622;SDS011;59473;53.214;5.728;2023-12-20T10:25:14;20.80;;;4.67;;
71622;SDS011;59473;53.214;5.728;2023-12-20T10:27:39;19.67;;;5.40;;
71622;SDS011;59473;53.214;5.728;2023-12-20T10:30:05;14.23;;;4.97;;
71622;SDS011;59473;53.214;5.728;2023-12-20T10:32:30;14.18;;;5.30;;
71622;SDS011;59473;53.214;5.728;2023-12-20T10:34:56;15.70;;;4.10;;
71622;SDS011;59473;53.214;5.728;2023-12-20T10:37:21;16.37;;;4.70;;
71622;SDS011;59473;53.214;5.728;2023-12-20T10:39:51;13.95;;;4.15;;
71622;SDS011;59473;53.214;5.728;2023-12-20T10:42:17;15.85;;;5.22;;
71622;SDS011;59473;53.214;5.728;2023-12-20T10:44:43;14.23;;;4.65;;
71622;SDS011;59473;53.214;5.728;2023-12-20T10:47:08;13.37;;;4.73;;
71622;SDS011;59473;53.214;5.728;2023-12-20T10:49:34;17.88;;;4.93;;
71622;SDS011;59473;53.214;5.728;2023-12-20T10:52:01;15.93;;;4.43;;
71622;SDS011;59473;53.214;5.728;2023-12-20T10:54:27;17.27;;;4.80;;
71622;SDS011;59473;53.214;5.728;2023-12-20T10:56:52;15.82;;;4.97;;
71622;SDS011;59473;53.214;5.728;2023-12-20T10:59:19;15.70;;;4.40;;
71622;SDS011;59473;53.214;5.728;2023-12-20T11:01:44;17.67;;;4.97;;
71622;SDS011;59473;53.214;5.728;2023-12-20T11:04:10;16.27;;;4.10;;
71622;SDS011;59473;53.214;5.728;2023-12-20T11:06:46;19.33;;;5.00;;
71622;SDS011;59473;53.214;5.728;2023-12-20T11:12:23;20.23;;;5.27;;
71622;SDS011;59473;53.214;5.728;2023-12-20T11:17:10;15.27;;;4.63;;
71622;SDS011;59473;53.214;5.728;2023-12-20T11:22:25;16.63;;;4.75;;
71622;SDS011;59473;53.214;5.728;2023-12-20T11:24:52;14.43;;;4.70;;
71622;SDS011;59473;53.214;5.728;2023-12-20T11:27:17;14.05;;;4.78;;
71622;SDS011;59473;53.214;5.728;2023-12-20T11:29:43;17.30;;;4.15;;
71622;SDS011;59473;53.214;5.728;2023-12-20T11:34:51;16.67;;;4.50;;
71622;SDS011;59473;53.214;5.728;2023-12-20T11:37:16;20.45;;;4.60;;
71622;SDS011;59473;53.214;5.728;2023-12-20T11:39:42;16.17;;;4.60;;
71622;SDS011;59473;53.214;5.728;2023-12-20T11:42:07;16.73;;;4.50;;
71622;SDS011;59473;53.214;5.728;2023-12-20T11:44:35;17.83;;;3.70;;
71622;SDS011;59473;53.214;5.728;2023-12-20T11:47:01;18.00;;;5.10;;
71622;SDS011;59473;53.214;5.728;2023-12-20T11:49:26;17.10;;;4.70;;
71622;SDS011;59473;53.214;5.728;2023-12-20T11:51:54;26.17;;;5.05;;
71622;SDS011;59473;53.214;5.728;2023-12-20T11:54:19;16.83;;;4.60;;
71622;SDS011;59473;53.214;5.728;2023-12-20T11:56:45;20.90;;;5.20;;
71622;SDS011;59473;53.214;5.728;2023-12-20T11:59:10;17.88;;;4.50;;
71622;SDS011;59473;53.214;5.728;2023-12-20T12:01:36;14.10;;;3.63;;
71622;SDS011;59473;53.214;5.728;2023-12-20T12:04:04;20.37;;;4.00;;
71622;SDS011;59473;53.214;5.728;2023-12-20T12:06:30;20.80;;;4.68;;
71622;SDS011;59473;53.214;5.728;2023-12-20T12:08:55;18.03;;;3.93;;
71622;SDS011;59473;53.214;5.728;2023-12-20T12:11:21;15.00;;;3.73;;
71622;SDS011;59473;53.214;5.728;2023-12-20T12:13:46;14.60;;;4.93;;
71622;SDS011;59473;53.214;5.728;2023-12-20T12:16:11;12.93;;;5.27;;
71622;SDS011;59473;53.214;5.728;2023-12-20T12:18:37;12.93;;;3.70;;
71622;SDS011;59473;53.214;5.728;2023-12-20T12:21:02;11.53;;;3.90;;
71622;SDS011;59473;53.214;5.728;2023-12-20T12:23:27;9.30;;;2.97;;
71622;SDS011;59473;53.214;5.728;2023-12-20T12:25:53;12.20;;;3.80;;
71622;SDS011;59473;53.214;5.728;2023-12-20T12:28:20;13.23;;;3.33;;
71622;SDS011;59473;53.214;5.728;2023-12-20T12:31:00;13.70;;;3.53;;
71622;SDS011;59473;53.214;5.728;2023-12-20T12:33:26;14.23;;;3.50;;
71622;SDS011;59473;53.214;5.728;2023-12-20T12:35:51;8.77;;;4.20;;
71622;SDS011;59473;53.214;5.728;2023-12-20T12:38:19;14.20;;;3.20;;
71622;SDS011;59473;53.214;5.728;2023-12-20T12:40:44;15.65;;;4.53;;
71622;SDS011;59473;53.214;5.728;2023-12-20T12:43:10;10.80;;;3.93;;
71622;SDS011;59473;53.214;5.728;2023-12-20T12:45:35;14.27;;;4.63;;
71622;SDS011;59473;53.214;5.728;2023-12-20T12:48:01;16.30;;;4.57;;
71622;SDS011;59473;53.214;5.728;2023-12-20T12:50:26;18.00;;;4.83;;
71622;SDS011;59473;53.214;5.728;2023-12-20T12:52:53;13.37;;;4.57;;
71622;SDS011;59473;53.214;5.728;2023-12-20T12:55:18;15.33;;;5.07;;
71622;SDS011;59473;53.214;5.728;2023-12-20T12:57:44;15.27;;;3.90;;
71622;SDS011;59473;53.214;5.728;2023-12-20T13:00:09;13.02;;;3.45;;
71622;SDS011;59473;53.214;5.728;2023-12-20T13:02:35;10.27;;;3.77;;
71622;SDS011;59473;53.214;5.728;2023-12-20T13:05:00;11.10;;;4.17;;
71622;SDS011;59473;53.214;5.728;2023-12-20T13:07:27;11.57;;;4.43;;
71622;SDS011;59473;53.214;5.728;2023-12-20T13:09:52;10.73;;;3.53;;
71622;SDS011;59473;53.214;5.728;2023-12-20T13:12:18;11.27;;;3.57;;
71622;SDS011;59473;53.214;5.728;2023-12-20T13:14:43;11.20;;;2.90;;
71622;SDS011;59473;53.214;5.728;2023-12-20T13:17:08;8.00;;;3.30;;
71622;SDS011;59473;53.214;5.728;2023-12-20T13:19:33;12.17;;;3.37;;
71622;SDS011;59473;53.214;5.728;2023-12-20T13:21:59;14.03;;;3.70;;
71622;SDS011;59473;53.214;5.728;2023-12-20T13:24:24;10.23;;;3.93;;
71622;SDS011;59473;53.214;5.728;2023-12-20T13:26:49;12.37;;;4.63;;
71622;SDS011;59473;53.214;5.728;2023-12-20T13:29:15;10.80;;;4.32;;
71622;SDS011;59473;53.214;5.728;2023-12-20T13:31:40;10.30;;;4.40;;
71622;SDS011;59473;53.214;5.728;2023-12-20T13:34:06;11.50;;;3.63;;
71622;SDS011;59473;53.214;5.728;2023-12-20T13:36:31;10.07;;;3.88;;
71622;SDS011;59473;53.214;5.728;2023-12-20T13:38:57;7.22;;;4.03;;
71622;SDS011;59473;53.214;5.728;2023-12-20T13:41:22;9.55;;;3.33;;
71622;SDS011;59473;53.214;5.728;2023-12-20T13:43:48;9.73;;;3.40;;
71622;SDS011;59473;53.214;5.728;2023-12-20T13:46:13;12.57;;;3.80;;
71622;SDS011;59473;53.214;5.728;2023-12-20T13:48:39;12.30;;;3.70;;
71622;SDS011;59473;53.214;5.728;2023-12-20T13:51:04;9.87;;;3.00;;
71622;SDS011;59473;53.214;5.728;2023-12-20T13:53:30;10.73;;;4.10;;
71622;SDS011;59473;53.214;5.728;2023-12-20T13:55:56;11.80;;;3.47;;
71622;SDS011;59473;53.214;5.728;2023-12-20T13:58:22;9.20;;;3.97;;
71622;SDS011;59473;53.214;5.728;2023-12-20T14:00:48;14.23;;;4.28;;
71622;SDS011;59473;53.214;5.728;2023-12-20T14:03:13;11.37;;;3.50;;
71622;SDS011;59473;53.214;5.728;2023-12-20T14:05:38;11.87;;;4.10;;
71622;SDS011;59473;53.214;5.728;2023-12-20T14:08:03;5.95;;;3.00;;
71622;SDS011;59473;53.214;5.728;2023-12-20T14:10:29;10.27;;;3.13;;
71622;SDS011;59473;53.214;5.728;2023-12-20T14:12:54;16.87;;;3.93;;
71622;SDS011;59473;53.214;5.728;2023-12-20T14:15:20;13.85;;;4.28;;
71622;SDS011;59473;53.214;5.728;2023-12-20T14:17:45;22.70;;;5.10;;
71622;SDS011;59473;53.214;5.728;2023-12-20T14:20:10;12.23;;;4.13;;
71622;SDS011;59473;53.214;5.728;2023-12-20T14:22:38;15.20;;;4.23;;
71622;SDS011;59473;53.214;5.728;2023-12-20T14:25:03;17.98;;;4.07;;
71622;SDS011;59473;53.214;5.728;2023-12-20T14:27:29;22.13;;;4.47;;
71622;SDS011;59473;53.214;5.728;2023-12-20T14:29:54;23.07;;;4.80;;
71622;SDS011;59473;53.214;5.728;2023-12-20T14:32:19;17.97;;;4.10;;
71622;SDS011;59473;53.214;5.728;2023-12-20T14:34:45;26.13;;;4.70;;
71622;SDS011;59473;53.214;5.728;2023-12-20T14:37:10;30.50;;;5.65;;